sensor_id;sensor_type;location;lat;lon;timestamp;pressure;altitude;pressure_sealevel;temperature;humidity
83557;BME280;73523;55.740;13.276;2023-11-21T00:01:57;100472.78;;;24.08;34.51
83557;BME280;73523;55.740;13.276;2023-11-21T00:04:22;100474.72;;;24.07;34.13
83557;BME280;73523;55.740;13.276;2023-11-21T00:06:48;100475.81;;;24.06;34.49
83557;BME280;73523;55.740;13.276;2023-11-21T00:09:15;100479.13;;;24.03;34.25
83557;BME280;73523;55.740;13.276;2023-11-21T00:11:44;100484.13;;;24.06;34.23
83557;BME280;73523;55.740;13.276;2023-11-21T00:14:10;100480.25;;;24.02;34.23
83557;BME280;73523;55.740;13.276;2023-11-21T00:16:35;100487.44;;;24.03;34.25
83557;BME280;73523;55.740;13.276;2023-11-21T00:19:01;100492.44;;;24.01;34.22
83557;BME280;73523;55.740;13.276;2023-11-21T00:21:26;100491.03;;;23.98;34.46
83557;BME280;73523;55.740;13.276;2023-11-21T00:23:51;100492.16;;;23.97;34.60
83557;BME280;73523;55.740;13.276;2023-11-21T00:26:17;100497.13;;;23.95;34.64
83557;BME280;73523;55.740;13.276;2023-11-21T00:28:42;100492.69;;;23.94;34.40
83557;BME280;73523;55.740;13.276;2023-11-21T00:31:07;100497.66;;;23.92;34.34
83557;BME280;73523;55.740;13.276;2023-11-21T00:33:33;100504.88;;;23.93;34.41
83557;BME280;73523;55.740;13.276;2023-11-21T00:35:58;100504.31;;;23.91;34.35
83557;BME280;73523;55.740;13.276;2023-11-21T00:38:24;100510.13;;;23.90;34.24
83557;BME280;73523;55.740;13.276;2023-11-21T00:40:49;100504.59;;;23.90;34.35
83557;BME280;73523;55.740;13.276;2023-11-21T00:43:14;100505.44;;;23.90;34.49
83557;BME280;73523;55.740;13.276;2023-11-21T00:45:40;100502.38;;;23.92;34.26
83557;BME280;73523;55.740;13.276;2023-11-21T00:48:05;100507.91;;;23.92;34.44
83557;BME280;73523;55.740;13.276;2023-11-21T00:50:31;100496.00;;;23.91;34.48
83557;BME280;73523;55.740;13.276;2023-11-21T00:52:56;100502.09;;;23.93;34.56
83557;BME280;73523;55.740;13.276;2023-11-21T00:55:22;100503.19;;;23.92;34.45
83557;BME280;73523;55.740;13.276;2023-11-21T00:57:48;100505.69;;;23.94;34.34
83557;BME280;73523;55.740;13.276;2023-11-21T01:00:13;100517.59;;;23.94;34.32
83557;BME280;73523;55.740;13.276;2023-11-21T01:02:42;100519.53;;;23.94;34.45
83557;BME280;73523;55.740;13.276;2023-11-21T01:05:09;100522.59;;;23.92;34.22
83557;BME280;73523;55.740;13.276;2023-11-21T01:07:34;100526.19;;;23.93;34.08
83557;BME280;73523;55.740;13.276;2023-11-21T01:10:02;100527.28;;;23.92;34.15
83557;BME280;73523;55.740;13.276;2023-11-21T01:12:27;100530.88;;;23.92;34.10
83557;BME280;73523;55.740;13.276;2023-11-21T01:14:52;100528.13;;;23.92;34.36
83557;BME280;73523;55.740;13.276;2023-11-21T01:17:18;100533.38;;;23.94;34.48
83557;BME280;73523;55.740;13.276;2023-11-21T01:19:44;100542.53;;;23.94;34.19
83557;BME280;73523;55.740;13.276;2023-11-21T01:22:09;100533.94;;;23.91;34.15
83557;BME280;73523;55.740;13.276;2023-11-21T01:24:37;100551.38;;;23.91;34.48
83557;BME280;73523;55.740;13.276;2023-11-21T01:27:02;100546.41;;;23.88;34.13
83557;BME280;73523;55.740;13.276;2023-11-21T01:29:29;100553.59;;;23.89;34.44
83557;BME280;73523;55.740;13.276;2023-11-21T01:31:55;100552.75;;;23.89;34.53
83557;BME280;73523;55.740;13.276;2023-11-21T01:34:20;100560.50;;;23.87;34.54
83557;BME280;73523;55.740;13.276;2023-11-21T01:36:46;100567.97;;;23.86;34.50
83557;BME280;73523;55.740;13.276;2023-11-21T01:39:11;100569.34;;;23.84;34.57
83557;BME280;73523;55.740;13.276;2023-11-21T01:41:40;100571.28;;;23.83;34.30
83557;BME280;73523;55.740;13.276;2023-11-21T01:44:05;100579.00;;;23.81;34.21
83557;BME280;73523;55.740;13.276;2023-11-21T01:46:33;100580.13;;;23.80;34.58
83557;BME280;73523;55.740;13.276;2023-11-21T01:48:58;100577.66;;;23.79;34.13
83557;BME280;73523;55.740;13.276;2023-11-21T01:51:24;100591.50;;;23.79;34.13
83557;BME280;73523;55.740;13.276;2023-11-21T01:53:50;100592.28;;;23.79;34.16
83557;BME280;73523;55.740;13.276;2023-11-21T01:56:16;100596.19;;;23.78;34.49
83557;BME280;73523;55.740;13.276;2023-11-21T01:58:42;100589.81;;;23.78;34.25
83557;BME280;73523;55.740;13.276;2023-11-21T02:01:08;100598.97;;;23.78;34.51
83557;BME280;73523;55.740;13.276;2023-11-21T02:03:35;100597.81;;;23.79;34.57
83557;BME280;73523;55.740;13.276;2023-11-21T02:06:01;100604.19;;;23.80;34.10
83557;BME280;73523;55.740;13.276;2023-11-21T02:08:26;100602.56;;;23.79;34.24
83557;BME280;73523;55.740;13.276;2023-11-21T02:10:52;100607.25;;;23.83;34.34
83557;BME280;73523;55.740;13.276;2023-11-21T02:13:17;100617.50;;;23.83;34.30
83557;BME280;73523;55.740;13.276;2023-11-21T02:15:42;100613.63;;;23.84;34.05
83557;BME280;73523;55.740;13.276;2023-11-21T02:18:08;100613.63;;;23.84;34.41
83557;BME280;73523;55.740;13.276;2023-11-21T02:20:36;100614.47;;;23.84;34.27
83557;BME280;73523;55.740;13.276;2023-11-21T02:23:04;100624.72;;;23.84;34.24
83557;BME280;73523;55.740;13.276;2023-11-21T02:25:31;100627.47;;;23.84;34.31
83557;BME280;73523;55.740;13.276;2023-11-21T02:27:58;100623.03;;;23.83;34.08
83557;BME280;73523;55.740;13.276;2023-11-21T02:30:24;100628.84;;;23.81;34.29
83557;BME280;73523;55.740;13.276;2023-11-21T02:32:50;100619.69;;;23.81;34.27
83557;BME280;73523;55.740;13.276;2023-11-21T02:35:18;100631.03;;;23.79;34.43
83557;BME280;73523;55.740;13.276;2023-11-21T02:37:46;100631.88;;;23.80;34.06
83557;BME280;73523;55.740;13.276;2023-11-21T02:40:11;100631.88;;;23.80;34.16
83557;BME280;73523;55.740;13.276;2023-11-21T02:42:38;100632.16;;;23.78;34.25
83557;BME280;73523;55.740;13.276;2023-11-21T02:45:03;100639.63;;;23.78;34.38
83557;BME280;73523;55.740;13.276;2023-11-21T02:47:30;100645.19;;;23.78;34.05
83557;BME280;73523;55.740;13.276;2023-11-21T02:49:56;100650.97;;;23.76;34.10
83557;BME280;73523;55.740;13.276;2023-11-21T02:52:21;100649.88;;;23.77;34.51
83557;BME280;73523;55.740;13.276;2023-11-21T02:54:46;100649.31;;;23.75;34.43
83557;BME280;73523;55.740;13.276;2023-11-21T02:57:12;100651.25;;;23.75;34.37
83557;BME280;73523;55.740;13.276;2023-11-21T02:59:37;100667.00;;;23.74;34.30
83557;BME280;73523;55.740;13.276;2023-11-21T03:02:02;100668.09;;;23.73;34.45
83557;BME280;73523;55.740;13.276;2023-11-21T03:04:28;100669.22;;;23.72;34.43
83557;BME280;73523;55.740;13.276;2023-11-21T03:06:53;100671.13;;;23.72;34.15
83557;BME280;73523;55.740;13.276;2023-11-21T03:09:18;100671.13;;;23.72;34.39
83557;BME280;73523;55.740;13.276;2023-11-21T03:11:44;100680.28;;;23.72;34.40
83557;BME280;73523;55.740;13.276;2023-11-21T03:14:09;100681.38;;;23.71;34.09
83557;BME280;73523;55.740;13.276;2023-11-21T03:16:35;100685.81;;;23.72;34.20
83557;BME280;73523;55.740;13.276;2023-11-21T03:19:03;100681.13;;;23.73;34.06
83557;BME280;73523;55.740;13.276;2023-11-21T03:21:28;100687.47;;;23.73;34.16
83557;BME280;73523;55.740;13.276;2023-11-21T03:23:54;100687.22;;;23.75;34.32
83557;BME280;73523;55.740;13.276;2023-11-21T03:26:19;100692.50;;;23.76;34.00
83557;BME280;73523;55.740;13.276;2023-11-21T03:28:45;100690.56;;;23.77;34.42
83557;BME280;73523;55.740;13.276;2023-11-21T03:31:11;100693.84;;;23.74;33.90
83557;BME280;73523;55.740;13.276;2023-11-21T03:33:36;100701.06;;;23.75;34.00
83557;BME280;73523;55.740;13.276;2023-11-21T03:36:02;100702.72;;;23.76;34.07
83557;BME280;73523;55.740;13.276;2023-11-21T03:38:29;100698.88;;;23.77;33.99
83557;BME280;73523;55.740;13.276;2023-11-21T03:40:54;100699.69;;;23.77;34.36
83557;BME280;73523;55.740;13.276;2023-11-21T03:43:19;100709.94;;;23.77;33.98
83557;BME280;73523;55.740;13.276;2023-11-21T03:45:44;100711.03;;;23.76;34.15
83557;BME280;73523;55.740;13.276;2023-11-21T03:48:12;100714.63;;;23.76;34.07
83557;BME280;73523;55.740;13.276;2023-11-21T03:50:37;100712.13;;;23.75;34.35
83557;BME280;73523;55.740;13.276;2023-11-21T03:53:04;100714.91;;;23.75;34.27
83557;BME280;73523;55.740;13.276;2023-11-21T03:55:29;100715.72;;;23.75;33.97
83557;BME280;73523;55.740;13.276;2023-11-21T03:57:56;100729.00;;;23.73;34.07
83557;BME280;73523;55.740;13.276;2023-11-21T04:00:22;100730.94;;;23.73;34.08
83557;BME280;73523;55.740;13.276;2023-11-21T04:02:47;100734.81;;;23.72;34.42
83557;BME280;73523;55.740;13.276;2023-11-21T04:05:13;100737.84;;;23.70;34.11
83557;BME280;73523;55.740;13.276;2023-11-21T04:07:38;100737.84;;;23.70;34.30
83557;BME280;73523;55.740;13.276;2023-11-21T04:10:08;100738.34;;;23.67;34.43
83557;BME280;73523;55.740;13.276;2023-11-21T04:12:35;100747.78;;;23.66;34.56
83557;BME280;73523;55.740;13.276;2023-11-21T04:15:00;100739.75;;;23.64;34.48
83557;BME280;73523;55.740;13.276;2023-11-21T04:17:26;100751.06;;;23.63;34.38
83557;BME280;73523;55.740;13.276;2023-11-21T04:19:51;100747.47;;;23.62;34.52
83557;BME280;73523;55.740;13.276;2023-11-21T04:22:16;100748.03;;;23.64;34.37
83557;BME280;73523;55.740;13.276;2023-11-21T04:24:42;100768.25;;;23.65;34.25
83557;BME280;73523;55.740;13.276;2023-11-21T04:27:07;100764.66;;;23.64;34.56
83557;BME280;73523;55.740;13.276;2023-11-21T04:29:33;100762.72;;;23.65;34.24
83557;BME280;73523;55.740;13.276;2023-11-21T04:31:58;100767.16;;;23.66;34.11
83557;BME280;73523;55.740;13.276;2023-11-21T04:34:23;100770.75;;;23.66;34.43
83557;BME280;73523;55.740;13.276;2023-11-21T04:36:49;100778.78;;;23.68;34.01
83557;BME280;73523;55.740;13.276;2023-11-21T04:39:15;100777.94;;;23.67;34.32
83557;BME280;73523;55.740;13.276;2023-11-21T04:41:40;100780.69;;;23.67;34.38
83557;BME280;73523;55.740;13.276;2023-11-21T04:44:06;100784.31;;;23.68;34.04
83557;BME280;73523;55.740;13.276;2023-11-21T04:46:31;100779.59;;;23.68;34.03
83557;BME280;73523;55.740;13.276;2023-11-21T04:48:57;100789.59;;;23.69;34.23
83557;BME280;73523;55.740;13.276;2023-11-21T04:51:23;100791.50;;;23.69;34.31
83557;BME280;73523;55.740;13.276;2023-11-21T04:53:48;100794.28;;;23.69;33.94
83557;BME280;73523;55.740;13.276;2023-11-21T04:56:14;100797.31;;;23.67;34.41
83557;BME280;73523;55.740;13.276;2023-11-21T04:58:39;100793.69;;;23.67;34.16
83557;BME280;73523;55.740;13.276;2023-11-21T05:01:05;100791.78;;;23.67;34.58
83557;BME280;73523;55.740;13.276;2023-11-21T05:03:32;100800.63;;;23.64;34.77
83557;BME280;73523;55.740;13.276;2023-11-21T05:05:57;100803.06;;;23.61;34.73
83557;BME280;73523;55.740;13.276;2023-11-21T05:08:22;100805.84;;;23.61;34.58
83557;BME280;73523;55.740;13.276;2023-11-21T05:10:48;100807.53;;;23.62;34.82
83557;BME280;73523;55.740;13.276;2023-11-21T05:13:14;100809.19;;;23.63;34.81
83557;BME280;73523;55.740;13.276;2023-11-21T05:15:40;100810.03;;;23.63;34.88
83557;BME280;73523;55.740;13.276;2023-11-21T05:18:06;100811.69;;;23.64;34.72
83557;BME280;73523;55.740;13.276;2023-11-21T05:20:31;100812.78;;;23.63;34.73
83557;BME280;73523;55.740;13.276;2023-11-21T05:22:58;100817.22;;;23.64;34.87
83557;BME280;73523;55.740;13.276;2023-11-21T05:25:24;100813.38;;;23.65;34.78
83557;BME280;73523;55.740;13.276;2023-11-21T05:27:49;100826.38;;;23.65;35.07
83557;BME280;73523;55.740;13.276;2023-11-21T05:30:14;100826.38;;;23.65;34.89
83557;BME280;73523;55.740;13.276;2023-11-21T05:32:40;100829.13;;;23.65;34.80
83557;BME280;73523;55.740;13.276;2023-11-21T05:35:08;100838.28;;;23.65;34.89
83557;BME280;73523;55.740;13.276;2023-11-21T05:37:37;100841.03;;;23.65;34.55
83557;BME280;73523;55.740;13.276;2023-11-21T05:40:04;100853.50;;;23.68;34.63
83557;BME280;73523;55.740;13.276;2023-11-21T05:42:32;100855.16;;;23.69;34.69
83557;BME280;73523;55.740;13.276;2023-11-21T05:44:57;100852.66;;;23.67;34.56
83557;BME280;73523;55.740;13.276;2023-11-21T05:47:24;100864.31;;;23.69;34.86
83557;BME280;73523;55.740;13.276;2023-11-21T05:49:51;100851.28;;;23.65;34.77
83557;BME280;73523;55.740;13.276;2023-11-21T05:52:17;100855.75;;;23.71;34.74
83557;BME280;73523;55.740;13.276;2023-11-21T05:54:43;100862.94;;;23.72;34.65
83557;BME280;73523;55.740;13.276;2023-11-21T05:57:08;100862.69;;;23.74;34.32
83557;BME280;73523;55.740;13.276;2023-11-21T05:59:34;100868.22;;;23.74;34.67
83557;BME280;73523;55.740;13.276;2023-11-21T06:01:59;100868.22;;;23.74;34.37
83557;BME280;73523;55.740;13.276;2023-11-21T06:04:24;100872.09;;;23.73;34.52
83557;BME280;73523;55.740;13.276;2023-11-21T06:06:51;100876.78;;;23.72;34.40
83557;BME280;73523;55.740;13.276;2023-11-21T06:09:17;100876.78;;;23.72;34.38
83557;BME280;73523;55.740;13.276;2023-11-21T06:11:42;100887.88;;;23.72;34.69
83557;BME280;73523;55.740;13.276;2023-11-21T06:14:08;100885.34;;;23.70;34.33
83557;BME280;73523;55.740;13.276;2023-11-21T06:16:34;100878.97;;;23.70;34.60
83557;BME280;73523;55.740;13.276;2023-11-21T06:19:00;100883.94;;;23.68;34.76
83557;BME280;73523;55.740;13.276;2023-11-21T06:21:26;100894.75;;;23.69;34.63
83557;BME280;73523;55.740;13.276;2023-11-21T06:23:51;100896.69;;;23.69;34.50
83557;BME280;73523;55.740;13.276;2023-11-21T06:26:18;100911.34;;;23.69;34.69
83557;BME280;73523;55.740;13.276;2023-11-21T06:28:43;100908.59;;;23.69;34.64
83557;BME280;73523;55.740;13.276;2023-11-21T06:31:09;100914.97;;;23.70;34.70
83557;BME280;73523;55.740;13.276;2023-11-21T06:33:35;100903.31;;;23.68;34.67
83557;BME280;73523;55.740;13.276;2023-11-21T06:36:01;100914.13;;;23.69;34.59
83557;BME280;73523;55.740;13.276;2023-11-21T06:38:27;100922.44;;;23.69;34.72
83557;BME280;73523;55.740;13.276;2023-11-21T06:40:53;100921.34;;;23.70;34.33
83557;BME280;73523;55.740;13.276;2023-11-21T06:43:20;100926.03;;;23.70;34.38
83557;BME280;73523;55.740;13.276;2023-11-21T06:45:47;100932.41;;;23.70;34.36
83557;BME280;73523;55.740;13.276;2023-11-21T06:48:12;100944.06;;;23.73;34.58
83557;BME280;73523;55.740;13.276;2023-11-21T06:50:38;100947.91;;;23.72;34.60
83557;BME280;73523;55.740;13.276;2023-11-21T06:53:03;100944.06;;;23.73;34.45
83557;BME280;73523;55.740;13.276;2023-11-21T06:55:32;100960.41;;;23.74;34.20
83557;BME280;73523;55.740;13.276;2023-11-21T06:57:57;100960.16;;;23.76;34.26
83557;BME280;73523;55.740;13.276;2023-11-21T07:00:23;100959.06;;;23.77;34.58
83557;BME280;73523;55.740;13.276;2023-11-21T07:02:48;100965.16;;;23.79;34.12
83557;BME280;73523;55.740;13.276;2023-11-21T07:05:14;100970.72;;;23.79;34.08
83557;BME280;73523;55.740;13.276;2023-11-21T07:07:40;100970.41;;;23.80;34.48
83557;BME280;73523;55.740;13.276;2023-11-21T07:10:06;100983.41;;;23.80;34.41
83557;BME280;73523;55.740;13.276;2023-11-21T07:12:33;100985.63;;;23.78;34.62
83557;BME280;73523;55.740;13.276;2023-11-21T07:14:59;100986.75;;;23.77;34.27
83557;BME280;73523;55.740;13.276;2023-11-21T07:17:25;100999.47;;;23.78;34.66
83557;BME280;73523;55.740;13.276;2023-11-21T07:19:50;101002.50;;;23.76;34.81
83557;BME280;73523;55.740;13.276;2023-11-21T07:22:16;101003.34;;;23.77;34.61
83557;BME280;73523;55.740;13.276;2023-11-21T07:24:50;101015.50;;;23.76;34.53
83557;BME280;73523;55.740;13.276;2023-11-21T07:27:18;101007.22;;;23.76;34.41
83557;BME280;73523;55.740;13.276;2023-11-21T07:29:44;101003.84;;;23.74;34.44
83557;BME280;73523;55.740;13.276;2023-11-21T07:32:10;101014.94;;;23.74;34.33
83557;BME280;73523;55.740;13.276;2023-11-21T07:34:36;101017.69;;;23.74;34.77
83557;BME280;73523;55.740;13.276;2023-11-21T07:37:02;101015.75;;;23.74;34.43
83557;BME280;73523;55.740;13.276;2023-11-21T07:39:28;101025.16;;;23.73;34.61
83557;BME280;73523;55.740;13.276;2023-11-21T07:41:53;101022.41;;;23.73;34.57
83557;BME280;73523;55.740;13.276;2023-11-21T07:44:19;101035.13;;;23.74;34.82
83557;BME280;73523;55.740;13.276;2023-11-21T07:46:45;101039.59;;;23.75;34.32
83557;BME280;73523;55.740;13.276;2023-11-21T07:49:10;101035.41;;;23.73;34.51
83557;BME280;73523;55.740;13.276;2023-11-21T07:51:36;101038.75;;;23.75;34.45
83557;BME280;73523;55.740;13.276;2023-11-21T07:54:01;101036.81;;;23.75;34.32
83557;BME280;73523;55.740;13.276;2023-11-21T07:56:26;101044.03;;;23.76;34.45
83557;BME280;73523;55.740;13.276;2023-11-21T07:58:52;101045.44;;;23.79;34.06
83557;BME280;73523;55.740;13.276;2023-11-21T08:01:17;101053.47;;;23.80;34.54
83557;BME280;73523;55.740;13.276;2023-11-21T08:03:43;101057.66;;;23.83;34.13
83557;BME280;73523;55.740;13.276;2023-11-21T08:06:09;101070.16;;;23.85;34.14
83557;BME280;73523;55.740;13.276;2023-11-21T08:08:34;101058.81;;;23.87;34.02
83557;BME280;73523;55.740;13.276;2023-11-21T08:11:00;101063.84;;;23.90;33.85
83557;BME280;73523;55.740;13.276;2023-11-21T08:13:28;101062.47;;;23.92;34.21
83557;BME280;73523;55.740;13.276;2023-11-21T08:15:59;101076.88;;;23.94;34.12
83557;BME280;73523;55.740;13.276;2023-11-21T08:18:28;101078.31;;;23.97;34.18
83557;BME280;73523;55.740;13.276;2023-11-21T08:20:54;101083.59;;;23.98;34.09
83557;BME280;73523;55.740;13.276;2023-11-21T08:23:20;101079.47;;;24.01;34.08
83557;BME280;73523;55.740;13.276;2023-11-21T08:25:46;101083.09;;;24.01;33.81
83557;BME280;73523;55.740;13.276;2023-11-21T08:28:12;101084.47;;;24.04;34.00
83557;BME280;73523;55.740;13.276;2023-11-21T08:30:39;101082.88;;;24.08;33.73
83557;BME280;73523;55.740;13.276;2023-11-21T08:33:07;101085.13;;;24.11;33.88
83557;BME280;73523;55.740;13.276;2023-11-21T08:35:33;101087.63;;;24.13;33.93
83557;BME280;73523;55.740;13.276;2023-11-21T08:37:59;101091.53;;;24.17;33.54
83557;BME280;73523;55.740;13.276;2023-11-21T08:40:24;101094.63;;;24.20;33.53
83557;BME280;73523;55.740;13.276;2023-11-21T08:42:50;101100.53;;;24.24;33.61
83557;BME280;73523;55.740;13.276;2023-11-21T08:45:18;101099.16;;;24.26;33.54
83557;BME280;73523;55.740;13.276;2023-11-21T08:47:44;101099.47;;;24.30;33.26
83557;BME280;73523;55.740;13.276;2023-11-21T08:50:10;101102.81;;;24.32;33.18
83557;BME280;73523;55.740;13.276;2023-11-21T08:52:37;101102.56;;;24.33;33.27
83557;BME280;73523;55.740;13.276;2023-11-21T08:55:03;101109.44;;;24.31;32.99
83557;BME280;73523;55.740;13.276;2023-11-21T08:57:34;101123.81;;;24.28;33.22
83557;BME280;73523;55.740;13.276;2023-11-21T09:00:00;101125.50;;;24.29;33.27
83557;BME280;73523;55.740;13.276;2023-11-21T09:02:26;101138.81;;;24.32;33.21
83557;BME280;73523;55.740;13.276;2023-11-21T09:04:52;101147.13;;;24.32;33.29
83557;BME280;73523;55.740;13.276;2023-11-21T09:07:20;101136.06;;;24.32;33.50
83557;BME280;73523;55.740;13.276;2023-11-21T09:09:46;101146.88;;;24.33;33.38
83557;BME280;73523;55.740;13.276;2023-11-21T09:12:12;101158.81;;;24.34;33.62
83557;BME280;73523;55.740;13.276;2023-11-21T09:14:38;101154.34;;;24.33;33.42
83557;BME280;73523;55.740;13.276;2023-11-21T09:17:05;101150.75;;;24.32;33.55
83557;BME280;73523;55.740;13.276;2023-11-21T09:19:38;101159.91;;;24.33;33.40
83557;BME280;73523;55.740;13.276;2023-11-21T09:22:04;101159.06;;;24.32;33.28
83557;BME280;73523;55.740;13.276;2023-11-21T09:24:31;101168.47;;;24.31;33.22
83557;BME280;73523;55.740;13.276;2023-11-21T09:26:56;101169.56;;;24.30;33.40
83557;BME280;73523;55.740;13.276;2023-11-21T09:29:22;101174.25;;;24.30;33.40
83557;BME280;73523;55.740;13.276;2023-11-21T09:31:47;101171.75;;;24.28;33.56
83557;BME280;73523;55.740;13.276;2023-11-21T09:34:13;101182.28;;;24.26;33.44
83557;BME280;73523;55.740;13.276;2023-11-21T09:36:40;101189.16;;;24.24;33.75
83557;BME280;73523;55.740;13.276;2023-11-21T09:39:06;101190.25;;;24.23;33.61
83557;BME280;73523;55.740;13.276;2023-11-21T09:41:40;101193.25;;;24.21;33.25
83557;BME280;73523;55.740;13.276;2023-11-21T09:44:12;101193.75;;;24.18;33.68
83557;BME280;73523;55.740;13.276;2023-11-21T09:46:41;101195.19;;;24.21;33.28
83557;BME280;73523;55.740;13.276;2023-11-21T09:49:09;101200.97;;;24.19;33.37
83557;BME280;73523;55.740;13.276;2023-11-21T09:51:39;101199.31;;;24.18;33.38
83557;BME280;73523;55.740;13.276;2023-11-21T09:54:08;101206.78;;;24.18;33.57
83557;BME280;73523;55.740;13.276;2023-11-21T09:56:35;101202.59;;;24.15;33.29
83557;BME280;73523;55.740;13.276;2023-11-21T09:59:01;101206.19;;;24.16;33.26
83557;BME280;73523;55.740;13.276;2023-11-21T10:01:30;101213.13;;;24.13;33.37
83557;BME280;73523;55.740;13.276;2023-11-21T10:03:56;101210.59;;;24.12;33.33
83557;BME280;73523;55.740;13.276;2023-11-21T10:06:22;101218.06;;;24.11;33.75
83557;BME280;73523;55.740;13.276;2023-11-21T10:08:49;101218.31;;;24.10;33.34
83557;BME280;73523;55.740;13.276;2023-11-21T10:11:17;101205.31;;;24.10;33.65
83557;BME280;73523;55.740;13.276;2023-11-21T10:13:44;101217.47;;;24.09;33.25
83557;BME280;73523;55.740;13.276;2023-11-21T10:16:14;101229.41;;;24.10;33.43
83557;BME280;73523;55.740;13.276;2023-11-21T10:18:41;101225.53;;;24.11;33.37
83557;BME280;73523;55.740;13.276;2023-11-21T10:21:07;101221.94;;;24.10;33.67
83557;BME280;73523;55.740;13.276;2023-11-21T10:23:34;101228.31;;;24.11;33.43
83557;BME280;73523;55.740;13.276;2023-11-21T10:25:59;101228.31;;;24.11;33.49
83557;BME280;73523;55.740;13.276;2023-11-21T10:28:25;101235.28;;;24.13;33.37
83557;BME280;73523;55.740;13.276;2023-11-21T10:30:51;101241.91;;;24.12;33.28
83557;BME280;73523;55.740;13.276;2023-11-21T10:33:17;101234.69;;;24.11;33.38
83557;BME280;73523;55.740;13.276;2023-11-21T10:35:51;101236.38;;;24.12;33.10
83557;BME280;73523;55.740;13.276;2023-11-21T10:38:20;101243.56;;;24.13;33.44
83557;BME280;73523;55.740;13.276;2023-11-21T10:40:50;101244.66;;;24.12;33.40
83557;BME280;73523;55.740;13.276;2023-11-21T10:43:16;101242.16;;;24.11;33.26
83557;BME280;73523;55.740;13.276;2023-11-21T10:45:42;101257.69;;;24.12;33.55
83557;BME280;73523;55.740;13.276;2023-11-21T10:48:15;101254.06;;;24.11;33.41
83557;BME280;73523;55.740;13.276;2023-11-21T10:50:41;101247.94;;;24.09;33.49
83557;BME280;73523;55.740;13.276;2023-11-21T10:53:06;101249.88;;;24.09;33.15
83557;BME280;73523;55.740;13.276;2023-11-21T10:55:33;101243.75;;;24.06;33.09
83557;BME280;73523;55.740;13.276;2023-11-21T10:58:01;101254.84;;;24.06;33.26
83557;BME280;73523;55.740;13.276;2023-11-21T11:00:28;101263.38;;;24.05;33.19
83557;BME280;73523;55.740;13.276;2023-11-21T11:02:54;101266.16;;;24.05;33.53
83557;BME280;73523;55.740;13.276;2023-11-21T11:05:25;101267.84;;;24.06;33.36
83557;BME280;73523;55.740;13.276;2023-11-21T11:07:56;101277.25;;;24.05;33.19
83557;BME280;73523;55.740;13.276;2023-11-21T11:10:25;101280.25;;;24.03;33.42
83557;BME280;73523;55.740;13.276;2023-11-21T11:12:53;101279.16;;;24.04;33.54
83557;BME280;73523;55.740;13.276;2023-11-21T11:15:19;101280.25;;;24.03;33.23
83557;BME280;73523;55.740;13.276;2023-11-21T11:17:46;101277.50;;;24.03;33.63
83557;BME280;73523;55.740;13.276;2023-11-21T11:20:12;101275.84;;;24.02;33.48
83557;BME280;73523;55.740;13.276;2023-11-21T11:22:59;101285.53;;;24.05;33.18
83557;BME280;73523;55.740;13.276;2023-11-21T11:25:47;101290.00;;;24.06;33.48
83557;BME280;73523;55.740;13.276;2023-11-21T11:28:27;101294.69;;;24.05;33.49
83557;BME280;73523;55.740;13.276;2023-11-21T11:31:04;101299.13;;;24.06;33.18
83557;BME280;73523;55.740;13.276;2023-11-21T11:33:39;101303.84;;;24.06;33.11
83557;BME280;73523;55.740;13.276;2023-11-21T11:36:15;101296.38;;;24.06;33.08
83557;BME280;73523;55.740;13.276;2023-11-21T11:38:45;101301.91;;;24.06;33.31
83557;BME280;73523;55.740;13.276;2023-11-21T11:41:11;101301.91;;;24.06;33.11
83557;BME280;73523;55.740;13.276;2023-11-21T11:43:37;101303.59;;;24.08;33.44
83557;BME280;73523;55.740;13.276;2023-11-21T11:46:11;101302.75;;;24.07;33.02
83557;BME280;73523;55.740;13.276;2023-11-21T11:48:40;101305.53;;;24.07;33.17
83557;BME280;73523;55.740;13.276;2023-11-21T11:51:12;101305.53;;;24.07;33.11
83557;BME280;73523;55.740;13.276;2023-11-21T11:53:46;101306.59;;;24.06;33.28
83557;BME280;73523;55.740;13.276;2023-11-21T11:56:30;101308.28;;;24.07;33.31
83557;BME280;73523;55.740;13.276;2023-11-21T11:59:02;101322.38;;;24.05;33.24
83557;BME280;73523;55.740;13.276;2023-11-21T12:01:29;101319.88;;;24.04;33.41
83557;BME280;73523;55.740;13.276;2023-11-21T12:06:56;101321.81;;;24.03;33.04
83557;BME280;73523;55.740;13.276;2023-11-21T12:09:25;101322.91;;;24.02;33.24
83557;BME280;73523;55.740;13.276;2023-11-21T12:11:52;101325.94;;;24.01;32.94
83557;BME280;73523;55.740;13.276;2023-11-21T12:14:18;101337.03;;;24.01;33.15
83557;BME280;73523;55.740;13.276;2023-11-21T12:16:44;101337.84;;;24.01;33.26
83557;BME280;73523;55.740;13.276;2023-11-21T12:19:10;101347.25;;;24.00;33.11
83557;BME280;73523;55.740;13.276;2023-11-21T12:21:36;101347.25;;;24.00;33.03
83557;BME280;73523;55.740;13.276;2023-11-21T12:24:02;101359.19;;;24.01;33.28
83557;BME280;73523;55.740;13.276;2023-11-21T12:26:28;101356.66;;;23.99;33.36
83557;BME280;73523;55.740;13.276;2023-11-21T12:28:53;101354.72;;;24.00;33.18
83557;BME280;73523;55.740;13.276;2023-11-21T12:31:22;101360.25;;;24.00;33.21
83557;BME280;73523;55.740;13.276;2023-11-21T12:33:48;101362.19;;;23.99;33.19
83557;BME280;73523;55.740;13.276;2023-11-21T12:36:13;101360.00;;;24.01;33.01
83557;BME280;73523;55.740;13.276;2023-11-21T12:38:40;101367.22;;;24.02;33.30
83557;BME280;73523;55.740;13.276;2023-11-21T12:41:06;101372.78;;;24.02;33.31